sensor_id;sensor_type;location;lat;lon;timestamp;pressure;altitude;pressure_sealevel;temperature;humidity
55759;BME280;41678;52.126;20.664;2023-05-25T00:00:11;100690.34;;;14.43;71.80
55759;BME280;41678;52.126;20.664;2023-05-25T00:05:51;100685.09;;;14.40;72.04
55759;BME280;41678;52.126;20.664;2023-05-25T00:11:12;100686.91;;;14.38;72.41
55759;BME280;41678;52.126;20.664;2023-05-25T00:16:32;100693.09;;;14.38;72.17
55759;BME280;41678;52.126;20.664;2023-05-25T00:21:55;100688.72;;;14.36;73.00
55759;BME280;41678;52.126;20.664;2023-05-25T00:27:14;100697.72;;;14.28;72.63
55759;BME280;41678;52.126;20.664;2023-05-25T00:32:34;100697.72;;;14.28;72.73
55759;BME280;41678;52.126;20.664;2023-05-25T00:37:54;100703.78;;;14.34;73.27
55759;BME280;41678;52.126;20.664;2023-05-25T00:43:14;100712.66;;;14.31;73.50
55759;BME280;41678;52.126;20.664;2023-05-25T00:48:33;100717.03;;;14.32;73.60
55759;BME280;41678;52.126;20.664;2023-05-25T00:53:53;100712.72;;;14.28;73.53
55759;BME280;41678;52.126;20.664;2023-05-25T00:59:23;100722.56;;;14.21;73.35
55759;BME280;41678;52.126;20.664;2023-05-25T01:04:50;100718.16;;;14.20;73.27
55759;BME280;41678;52.126;20.664;2023-05-25T01:10:13;100715.50;;;14.22;73.79
55759;BME280;41678;52.126;20.664;2023-05-25T01:15:36;100717.25;;;14.21;73.99
55759;BME280;41678;52.126;20.664;2023-05-25T01:21:01;100713.84;;;14.16;74.05
55759;BME280;41678;52.126;20.664;2023-05-25T01:26:34;100714.81;;;14.12;73.75
55759;BME280;41678;52.126;20.664;2023-05-25T01:31:56;100720.00;;;14.16;73.86
55759;BME280;41678;52.126;20.664;2023-05-25T01:37:17;100721.75;;;14.17;74.72
55759;BME280;41678;52.126;20.664;2023-05-25T01:42:37;100714.69;;;14.16;74.12
55759;BME280;41678;52.126;20.664;2023-05-25T01:48:19;100717.31;;;14.20;74.90
55759;BME280;41678;52.126;20.664;2023-05-25T01:53:42;100715.66;;;14.14;74.61
55759;BME280;41678;52.126;20.664;2023-05-25T01:59:06;100709.56;;;14.09;74.32
55759;BME280;41678;52.126;20.664;2023-05-25T02:04:27;100708.69;;;14.08;75.00
55759;BME280;41678;52.126;20.664;2023-05-25T02:09:47;100712.22;;;14.09;75.50
55759;BME280;41678;52.126;20.664;2023-05-25T02:15:07;100714.84;;;14.09;75.26
55759;BME280;41678;52.126;20.664;2023-05-25T02:20:28;100717.69;;;13.99;74.70
55759;BME280;41678;52.126;20.664;2023-05-25T02:25:47;100716.72;;;14.05;75.04
55759;BME280;41678;52.126;20.664;2023-05-25T02:31:07;100722.03;;;14.02;75.08
55759;BME280;41678;52.126;20.664;2023-05-25T02:36:26;100729.13;;;14.00;75.50
55759;BME280;41678;52.126;20.664;2023-05-25T02:41:46;100728.16;;;14.06;75.87
55759;BME280;41678;52.126;20.664;2023-05-25T02:47:06;100736.25;;;13.98;75.17
55759;BME280;41678;52.126;20.664;2023-05-25T02:52:26;100732.75;;;13.96;75.37
55759;BME280;41678;52.126;20.664;2023-05-25T02:57:46;100721.31;;;13.94;75.46
55759;BME280;41678;52.126;20.664;2023-05-25T03:03:18;100726.63;;;13.94;75.53
55759;BME280;41678;52.126;20.664;2023-05-25T03:08:38;100715.16;;;13.93;75.63
55759;BME280;41678;52.126;20.664;2023-05-25T03:13:57;100712.47;;;13.96;76.60
55759;BME280;41678;52.126;20.664;2023-05-25T03:19:19;100715.94;;;13.98;75.68
55759;BME280;41678;52.126;20.664;2023-05-25T03:24:39;100726.63;;;13.92;76.05
55759;BME280;41678;52.126;20.664;2023-05-25T03:30:00;100737.19;;;13.95;76.24
55759;BME280;41678;52.126;20.664;2023-05-25T03:35:20;100739.91;;;13.91;76.25
55759;BME280;41678;52.126;20.664;2023-05-25T03:40:40;100751.28;;;13.96;76.36
55759;BME280;41678;52.126;20.664;2023-05-25T03:46:00;100750.47;;;13.92;76.29
55759;BME280;41678;52.126;20.664;2023-05-25T03:51:20;100743.50;;;13.86;76.06
55759;BME280;41678;52.126;20.664;2023-05-25T03:56:40;100754.75;;;13.99;77.19
55759;BME280;41678;52.126;20.664;2023-05-25T04:01:59;100756.59;;;13.94;76.97
55759;BME280;41678;52.126;20.664;2023-05-25T04:07:21;100759.22;;;13.97;76.83
55759;BME280;41678;52.126;20.664;2023-05-25T04:12:40;100772.44;;;13.97;76.95
55759;BME280;41678;52.126;20.664;2023-05-25T04:18:00;100775.94;;;13.99;77.07
55759;BME280;41678;52.126;20.664;2023-05-25T04:23:21;100762.72;;;13.98;77.07
55759;BME280;41678;52.126;20.664;2023-05-25T04:28:41;100773.28;;;13.99;77.36
55759;BME280;41678;52.126;20.664;2023-05-25T04:34:21;100762.84;;;13.92;76.82
55759;BME280;41678;52.126;20.664;2023-05-25T04:39:58;100781.09;;;14.06;77.66
55759;BME280;41678;52.126;20.664;2023-05-25T04:45:18;100781.19;;;14.01;77.17
55759;BME280;41678;52.126;20.664;2023-05-25T04:50:39;100772.47;;;13.94;77.31
55759;BME280;41678;52.126;20.664;2023-05-25T04:56:01;100773.28;;;13.99;77.55
55759;BME280;41678;52.126;20.664;2023-05-25T05:01:21;100778.53;;;14.01;77.30
55759;BME280;41678;52.126;20.664;2023-05-25T05:06:42;100777.69;;;14.00;77.38
55759;BME280;41678;52.126;20.664;2023-05-25T05:12:07;100783.81;;;14.02;77.34
55759;BME280;41678;52.126;20.664;2023-05-25T05:17:32;100790.91;;;14.00;77.52
55759;BME280;41678;52.126;20.664;2023-05-25T05:22:52;100795.25;;;14.05;77.47
55759;BME280;41678;52.126;20.664;2023-05-25T05:28:12;100796.84;;;14.13;77.90
55759;BME280;41678;52.126;20.664;2023-05-25T05:33:33;100785.44;;;14.11;77.55
55759;BME280;41678;52.126;20.664;2023-05-25T05:38:54;100790.72;;;14.11;78.08
55759;BME280;41678;52.126;20.664;2023-05-25T05:44:14;100795.03;;;14.17;78.00
55759;BME280;41678;52.126;20.664;2023-05-25T05:49:34;100800.41;;;14.14;77.99
55759;BME280;41678;52.126;20.664;2023-05-25T05:54:56;100806.47;;;14.19;78.17
55759;BME280;41678;52.126;20.664;2023-05-25T06:00:16;100813.44;;;14.23;78.42
55759;BME280;41678;52.126;20.664;2023-05-25T06:05:36;100825.78;;;14.26;78.44
55759;BME280;41678;52.126;20.664;2023-05-25T06:10:56;100830.19;;;14.25;78.13
55759;BME280;41678;52.126;20.664;2023-05-25T06:16:15;100833.69;;;14.27;78.30
55759;BME280;41678;52.126;20.664;2023-05-25T06:21:34;100832.78;;;14.28;78.22
55759;BME280;41678;52.126;20.664;2023-05-25T06:26:55;100833.72;;;14.26;78.31
55759;BME280;41678;52.126;20.664;2023-05-25T06:32:15;100831.06;;;14.27;78.16
55759;BME280;41678;52.126;20.664;2023-05-25T06:37:35;100844.09;;;14.37;78.56
55759;BME280;41678;52.126;20.664;2023-05-25T06:42:57;100830.09;;;14.31;78.26
55759;BME280;41678;52.126;20.664;2023-05-25T06:48:33;100827.31;;;14.38;78.40
55759;BME280;41678;52.126;20.664;2023-05-25T06:53:55;100833.44;;;14.40;78.52
55759;BME280;41678;52.126;20.664;2023-05-25T06:59:15;100838.72;;;14.41;78.33
55759;BME280;41678;52.126;20.664;2023-05-25T07:04:35;100850.09;;;14.47;78.11
55759;BME280;41678;52.126;20.664;2023-05-25T07:09:54;100842.19;;;14.45;78.40
55759;BME280;41678;52.126;20.664;2023-05-25T07:15:13;100833.22;;;14.52;78.43
55759;BME280;41678;52.126;20.664;2023-05-25T07:20:34;100829.66;;;14.55;78.41
55759;BME280;41678;52.126;20.664;2023-05-25T07:25:54;100836.66;;;14.57;78.23
55759;BME280;41678;52.126;20.664;2023-05-25T07:31:13;100838.19;;;14.69;78.43
55759;BME280;41678;52.126;20.664;2023-05-25T07:36:32;100840.78;;;14.74;78.23
55759;BME280;41678;52.126;20.664;2023-05-25T07:41:52;100831.88;;;14.77;78.49
55759;BME280;41678;52.126;20.664;2023-05-25T07:47:12;100836.09;;;14.89;78.71
55759;BME280;41678;52.126;20.664;2023-05-25T07:52:32;100823.66;;;14.91;78.43
55759;BME280;41678;52.126;20.664;2023-05-25T07:57:52;100821.84;;;14.93;78.19
55759;BME280;41678;52.126;20.664;2023-05-25T08:03:11;100826.81;;;15.08;78.49
55759;BME280;41678;52.126;20.664;2023-05-25T08:08:32;100827.41;;;15.23;78.82
55759;BME280;41678;52.126;20.664;2023-05-25T08:13:52;100834.84;;;15.46;78.43
55759;BME280;41678;52.126;20.664;2023-05-25T08:19:11;100831.81;;;15.62;79.30
55759;BME280;41678;52.126;20.664;2023-05-25T08:24:31;100833.28;;;15.73;79.48
55759;BME280;41678;52.126;20.664;2023-05-25T08:29:50;100840.22;;;15.81;79.24
55759;BME280;41678;52.126;20.664;2023-05-25T08:35:10;100843.66;;;15.84;79.08
55759;BME280;41678;52.126;20.664;2023-05-25T08:40:32;100835.59;;;15.91;78.94
55759;BME280;41678;52.126;20.664;2023-05-25T08:45:51;100845.84;;;16.05;78.83
55759;BME280;41678;52.126;20.664;2023-05-25T08:51:13;100840.31;;;16.14;78.70
55759;BME280;41678;52.126;20.664;2023-05-25T08:56:51;100841.88;;;16.21;78.20
55759;BME280;41678;52.126;20.664;2023-05-25T09:07:59;100848.97;;;16.55;79.29
55759;BME280;41678;52.126;20.664;2023-05-25T09:13:18;100849.78;;;16.57;78.93
55759;BME280;41678;52.126;20.664;2023-05-25T09:18:38;100845.94;;;16.68;78.84
55759;BME280;41678;52.126;20.664;2023-05-25T09:23:59;100856.16;;;16.83;78.33
55759;BME280;41678;52.126;20.664;2023-05-25T09:29:18;100854.25;;;16.89;78.63
55759;BME280;41678;52.126;20.664;2023-05-25T09:34:42;100857.50;;;16.98;78.55
55759;BME280;41678;52.126;20.664;2023-05-25T09:40:02;100849.09;;;17.14;78.31
55759;BME280;41678;52.126;20.664;2023-05-25T09:45:23;100854.66;;;17.35;78.73
55759;BME280;41678;52.126;20.664;2023-05-25T09:50:43;100851.53;;;17.50;78.70
55759;BME280;41678;52.126;20.664;2023-05-25T09:56:02;100870.56;;;17.66;78.47
55759;BME280;41678;52.126;20.664;2023-05-25T10:01:22;100865.66;;;17.81;78.48
55759;BME280;41678;52.126;20.664;2023-05-25T10:06:43;100866.19;;;17.92;78.10
55759;BME280;41678;52.126;20.664;2023-05-25T10:12:06;100865.59;;;18.11;78.42
55759;BME280;41678;52.126;20.664;2023-05-25T10:17:26;100859.78;;;18.25;78.08
55759;BME280;41678;52.126;20.664;2023-05-25T10:22:59;100851.44;;;18.36;77.70
55759;BME280;41678;52.126;20.664;2023-05-25T10:28:28;100836.72;;;18.49;77.57
55759;BME280;41678;52.126;20.664;2023-05-25T10:33:48;100845.94;;;18.66;77.45
55759;BME280;41678;52.126;20.664;2023-05-25T10:39:08;100833.03;;;18.77;77.38
55759;BME280;41678;52.126;20.664;2023-05-25T10:44:29;100828.31;;;18.86;77.29
55759;BME280;41678;52.126;20.664;2023-05-25T10:49:57;100836.56;;;19.03;77.04
55759;BME280;41678;52.126;20.664;2023-05-25T10:55:17;100836.97;;;19.16;77.02
55759;BME280;41678;52.126;20.664;2023-05-25T11:00:37;100834.81;;;19.26;76.46
55759;BME280;41678;52.126;20.664;2023-05-25T11:05:57;100831.66;;;19.38;76.37
55759;BME280;41678;52.126;20.664;2023-05-25T11:11:17;100839.25;;;19.49;76.01
55759;BME280;41678;52.126;20.664;2023-05-25T11:16:36;100832.75;;;19.55;75.90
55759;BME280;41678;52.126;20.664;2023-05-25T11:22:16;100826.13;;;19.65;75.75
55759;BME280;41678;52.126;20.664;2023-05-25T11:27:44;100816.94;;;19.73;75.34
55759;BME280;41678;52.126;20.664;2023-05-25T11:33:04;100816.53;;;19.82;75.00
55759;BME280;41678;52.126;20.664;2023-05-25T11:38:25;100812.88;;;19.85;75.01
55759;BME280;41678;52.126;20.664;2023-05-25T11:43:47;100813.50;;;19.91;75.01
55759;BME280;41678;52.126;20.664;2023-05-25T11:49:08;100810.66;;;19.96;74.86
55759;BME280;41678;52.126;20.664;2023-05-25T11:54:29;100810.44;;;20.01;74.82
55759;BME280;41678;52.126;20.664;2023-05-25T11:59:50;100808.59;;;20.03;74.85
55759;BME280;41678;52.126;20.664;2023-05-25T12:05:09;100808.31;;;20.09;74.56
55759;BME280;41678;52.126;20.664;2023-05-25T12:10:29;100796.56;;;20.13;74.21
55759;BME280;41678;52.126;20.664;2023-05-25T12:15:49;100791.81;;;20.20;74.22
55759;BME280;41678;52.126;20.664;2023-05-25T12:21:10;100797.56;;;20.31;73.92
55759;BME280;41678;52.126;20.664;2023-05-25T12:26:29;100791.06;;;20.37;73.74
55759;BME280;41678;52.126;20.664;2023-05-25T12:31:49;100791.00;;;20.38;73.89
55759;BME280;41678;52.126;20.664;2023-05-25T12:37:19;100788.72;;;20.50;73.45
55759;BME280;41678;52.126;20.664;2023-05-25T12:42:39;100784.84;;;20.57;73.12
55759;BME280;41678;52.126;20.664;2023-05-25T12:47:59;100769.47;;;20.61;72.99
55759;BME280;41678;52.126;20.664;2023-05-25T12:53:19;100767.69;;;20.61;72.95
55759;BME280;41678;52.126;20.664;2023-05-25T12:58:39;100757.56;;;20.68;73.04
55759;BME280;41678;52.126;20.664;2023-05-25T13:03:59;100767.84;;;20.77;73.05
55759;BME280;41678;52.126;20.664;2023-05-25T13:09:18;100762.63;;;20.74;73.16
55759;BME280;41678;52.126;20.664;2023-05-25T13:14:38;100749.88;;;20.81;73.07
55759;BME280;41678;52.126;20.664;2023-05-25T13:19:57;100746.38;;;20.79;73.03
55759;BME280;41678;52.126;20.664;2023-05-25T13:25:17;100750.75;;;20.82;72.86
55759;BME280;41678;52.126;20.664;2023-05-25T13:30:37;100736.44;;;20.83;72.93
55759;BME280;41678;52.126;20.664;2023-05-25T13:35:57;100727.31;;;20.87;72.96
55759;BME280;41678;52.126;20.664;2023-05-25T13:41:26;100722.69;;;20.90;72.86
55759;BME280;41678;52.126;20.664;2023-05-25T13:46:45;100730.63;;;20.92;72.99
55759;BME280;41678;52.126;20.664;2023-05-25T13:52:05;100732.06;;;20.99;72.93
55759;BME280;41678;52.126;20.664;2023-05-25T13:57:24;100726.50;;;21.04;72.68
55759;BME280;41678;52.126;20.664;2023-05-25T14:02:44;100728.97;;;21.08;72.40
55759;BME280;41678;52.126;20.664;2023-05-25T14:08:04;100728.97;;;21.08;72.46
55759;BME280;41678;52.126;20.664;2023-05-25T14:13:25;100731.63;;;21.08;72.14
55759;BME280;41678;52.126;20.664;2023-05-25T14:18:45;100719.03;;;21.11;71.76
55759;BME280;41678;52.126;20.664;2023-05-25T14:24:05;100727.06;;;21.11;71.70
55759;BME280;41678;52.126;20.664;2023-05-25T14:29:25;100722.66;;;21.09;71.79
55759;BME280;41678;52.126;20.664;2023-05-25T14:34:44;100715.56;;;21.08;71.73
55759;BME280;41678;52.126;20.664;2023-05-25T14:40:05;100722.72;;;21.08;71.59
55759;BME280;41678;52.126;20.664;2023-05-25T14:45:25;100718.25;;;21.08;71.52
55759;BME280;41678;52.126;20.664;2023-05-25T14:50:44;100713.59;;;21.12;71.20
55759;BME280;41678;52.126;20.664;2023-05-25T14:56:04;100715.56;;;21.08;71.23
55759;BME280;41678;52.126;20.664;2023-05-25T15:01:23;100712.22;;;21.03;71.27
55759;BME280;41678;52.126;20.664;2023-05-25T15:06:42;100711.28;;;21.04;71.00
55759;BME280;41678;52.126;20.664;2023-05-25T15:12:02;100716.81;;;21.01;71.51
55759;BME280;41678;52.126;20.664;2023-05-25T15:17:22;100713.34;;;20.99;71.33
55759;BME280;41678;52.126;20.664;2023-05-25T15:22:41;100715.84;;;21.02;71.42
55759;BME280;41678;52.126;20.664;2023-05-25T15:28:01;100710.59;;;21.01;71.10
55759;BME280;41678;52.126;20.664;2023-05-25T15:33:20;100708.63;;;21.04;71.07
55759;BME280;41678;52.126;20.664;2023-05-25T15:38:40;100712.97;;;21.07;70.78
55759;BME280;41678;52.126;20.664;2023-05-25T15:44:01;100709.41;;;21.06;70.98
55759;BME280;41678;52.126;20.664;2023-05-25T15:49:21;100703.97;;;21.08;70.65
55759;BME280;41678;52.126;20.664;2023-05-25T15:54:40;100698.56;;;21.09;70.60
55759;BME280;41678;52.126;20.664;2023-05-25T16:00:00;100703.09;;;21.07;70.93
55759;BME280;41678;52.126;20.664;2023-05-25T16:05:19;100706.59;;;21.09;70.74
55759;BME280;41678;52.126;20.664;2023-05-25T16:10:39;100706.44;;;21.13;70.43
55759;BME280;41678;52.126;20.664;2023-05-25T16:15:58;100705.66;;;21.11;70.59
55759;BME280;41678;52.126;20.664;2023-05-25T16:21:18;100703.09;;;21.07;70.66
55759;BME280;41678;52.126;20.664;2023-05-25T16:26:37;100699.78;;;21.02;70.70
55759;BME280;41678;52.126;20.664;2023-05-25T16:31:57;100702.84;;;20.94;70.92
55759;BME280;41678;52.126;20.664;2023-05-25T16:37:17;100696.91;;;20.88;71.20
55759;BME280;41678;52.126;20.664;2023-05-25T16:42:36;100698.97;;;20.83;70.85
55759;BME280;41678;52.126;20.664;2023-05-25T16:47:56;100696.28;;;20.83;70.99
55759;BME280;41678;52.126;20.664;2023-05-25T16:53:15;100687.50;;;20.79;71.00
55759;BME280;41678;52.126;20.664;2023-05-25T16:58:34;100686.78;;;20.75;71.30
55759;BME280;41678;52.126;20.664;2023-05-25T17:03:54;100685.25;;;20.70;71.05
55759;BME280;41678;52.126;20.664;2023-05-25T17:09:13;100688.22;;;20.63;71.15
55759;BME280;41678;52.126;20.664;2023-05-25T17:14:33;100692.72;;;20.63;71.04
55759;BME280;41678;52.126;20.664;2023-05-25T17:19:52;100690.41;;;20.55;71.26
55759;BME280;41678;52.126;20.664;2023-05-25T17:25:12;100687.16;;;20.48;71.41
55759;BME280;41678;52.126;20.664;2023-05-25T17:30:31;100690.03;;;20.44;71.18
55759;BME280;41678;52.126;20.664;2023-05-25T17:35:51;100695.66;;;20.37;71.28
55759;BME280;41678;52.126;20.664;2023-05-25T17:41:11;100699.47;;;20.32;71.28
55759;BME280;41678;52.126;20.664;2023-05-25T17:46:31;100698.91;;;20.25;71.23
55759;BME280;41678;52.126;20.664;2023-05-25T17:51:50;100696.59;;;20.17;71.36
55759;BME280;41678;52.126;20.664;2023-05-25T17:57:10;100695.28;;;20.07;71.28
55759;BME280;41678;52.126;20.664;2023-05-25T18:02:29;100704.47;;;20.00;71.53
55759;BME280;41678;52.126;20.664;2023-05-25T18:07:49;100708.38;;;19.92;71.32
55759;BME280;41678;52.126;20.664;2023-05-25T18:13:09;100701.50;;;19.85;71.66
55759;BME280;41678;52.126;20.664;2023-05-25T18:18:28;100707.13;;;19.79;71.51
55759;BME280;41678;52.126;20.664;2023-05-25T18:23:48;100714.59;;;19.71;71.51
55759;BME280;41678;52.126;20.664;2023-05-25T18:29:08;100720.16;;;19.66;71.52
55759;BME280;41678;52.126;20.664;2023-05-25T18:34:28;100716.19;;;19.54;71.71
55759;BME280;41678;52.126;20.664;2023-05-25T18:39:48;100724.53;;;19.46;71.77
55759;BME280;41678;52.126;20.664;2023-05-25T18:45:08;100729.16;;;19.43;71.50
55759;BME280;41678;52.126;20.664;2023-05-25T18:50:28;100731.25;;;19.34;71.55
55759;BME280;41678;52.126;20.664;2023-05-25T18:55:48;100744.16;;;19.23;71.53
55759;BME280;41678;52.126;20.664;2023-05-25T19:01:07;100743.63;;;19.15;71.68
55759;BME280;41678;52.126;20.664;2023-05-25T19:06:27;100753.72;;;19.06;71.44
55759;BME280;41678;52.126;20.664;2023-05-25T19:11:46;100753.03;;;19.01;71.66
55759;BME280;41678;52.126;20.664;2023-05-25T19:17:06;100754.38;;;18.89;71.73
55759;BME280;41678;52.126;20.664;2023-05-25T19:22:26;100750.16;;;18.83;71.49
55759;BME280;41678;52.126;20.664;2023-05-25T19:27:46;100758.38;;;18.77;71.41
55759;BME280;41678;52.126;20.664;2023-05-25T19:33:05;100753.16;;;18.74;71.63
55759;BME280;41678;52.126;20.664;2023-05-25T19:38:25;100749.09;;;18.64;71.60
55759;BME280;41678;52.126;20.664;2023-05-25T19:43:45;100753.06;;;18.53;71.82
55759;BME280;41678;52.126;20.664;2023-05-25T19:49:05;100758.50;;;18.50;71.80
55759;BME280;41678;52.126;20.664;2023-05-25T19:54:25;100758.78;;;18.43;71.58
55759;BME280;41678;52.126;20.664;2023-05-25T19:59:44;100758.94;;;18.38;71.86
55759;BME280;41678;52.126;20.664;2023-05-25T20:05:05;100760.09;;;18.31;72.05
55759;BME280;41678;52.126;20.664;2023-05-25T20:10:24;100754.19;;;18.22;71.80
55759;BME280;41678;52.126;20.664;2023-05-25T20:15:44;100744.53;;;18.18;72.01
55759;BME280;41678;52.126;20.664;2023-05-25T20:21:04;100745.75;;;18.09;71.79
55759;BME280;41678;52.126;20.664;2023-05-25T20:26:24;100754.72;;;18.07;71.97
55759;BME280;41678;52.126;20.664;2023-05-25T20:31:44;100760.13;;;18.04;72.12
55759;BME280;41678;52.126;20.664;2023-05-25T20:37:03;100756.59;;;18.05;71.65
55759;BME280;41678;52.126;20.664;2023-05-25T20:42:23;100760.13;;;18.04;71.76
55759;BME280;41678;52.126;20.664;2023-05-25T20:47:42;100750.50;;;17.99;71.91
55759;BME280;41678;52.126;20.664;2023-05-25T20:53:01;100753.97;;;18.02;71.74
55759;BME280;41678;52.126;20.664;2023-05-25T20:58:21;100755.81;;;17.99;71.75
55759;BME280;41678;52.126;20.664;2023-05-25T21:03:41;100756.63;;;18.02;71.73
55759;BME280;41678;52.126;20.664;2023-05-25T21:09:01;100760.44;;;17.94;72.20
55759;BME280;41678;52.126;20.664;2023-05-25T21:14:21;100776.63;;;17.88;72.05
55759;BME280;41678;52.126;20.664;2023-05-25T21:19:40;100774.88;;;17.87;72.21
55759;BME280;41678;52.126;20.664;2023-05-25T21:25:00;100780.44;;;17.81;71.86
55759;BME280;41678;52.126;20.664;2023-05-25T21:30:20;100781.22;;;17.84;71.82
55759;BME280;41678;52.126;20.664;2023-05-25T21:35:40;100786.84;;;17.75;71.97
55759;BME280;41678;52.126;20.664;2023-05-25T21:40:59;100787.06;;;17.69;71.97
55759;BME280;41678;52.126;20.664;2023-05-25T21:46:19;100790.53;;;17.71;71.83
55759;BME280;41678;52.126;20.664;2023-05-25T21:51:38;100796.94;;;17.65;71.96
55759;BME280;41678;52.126;20.664;2023-05-25T21:56:58;100787.25;;;17.63;72.16
55759;BME280;41678;52.126;20.664;2023-05-25T22:02:17;100783.88;;;17.58;72.08
55759;BME280;41678;52.126;20.664;2023-05-25T22:07:37;100803.47;;;17.55;72.25
55759;BME280;41678;52.126;20.664;2023-05-25T22:12:56;100798.97;;;17.57;72.21
55759;BME280;41678;52.126;20.664;2023-05-25T22:18:16;100786.97;;;17.44;72.46
55759;BME280;41678;52.126;20.664;2023-05-25T22:23:36;100801.41;;;17.36;72.23
55759;BME280;41678;52.126;20.664;2023-05-25T22:28:56;100799.88;;;17.29;72.18
55759;BME280;41678;52.126;20.664;2023-05-25T22:34:16;100797.34;;;17.24;72.04
55759;BME280;41678;52.126;20.664;2023-05-25T22:39:36;100801.88;;;17.21;72.28
55759;BME280;41678;52.126;20.664;2023-05-25T22:44:56;100813.72;;;17.10;72.71
55759;BME280;41678;52.126;20.664;2023-05-25T22:50:16;100805.22;;;16.99;72.24
55759;BME280;41678;52.126;20.664;2023-05-25T22:55:35;100801.97;;;16.88;72.61
55759;BME280;41678;52.126;20.664;2023-05-25T23:00:55;100801.31;;;16.79;72.40
55759;BME280;41678;52.126;20.664;2023-05-25T23:06:15;100800.59;;;16.73;72.59
55759;BME280;41678;52.126;20.664;2023-05-25T23:11:34;100804.38;;;16.65;72.54
55759;BME280;41678;52.126;20.664;2023-05-25T23:16:54;100802.88;;;16.55;72.92
55759;BME280;41678;52.126;20.664;2023-05-25T23:22:13;100802.09;;;16.51;72.96
55759;BME280;41678;52.126;20.664;2023-05-25T23:27:33;100805.84;;;16.44;72.51
55759;BME280;41678;52.126;20.664;2023-05-25T23:32:52;100810.38;;;16.40;72.60
55759;BME280;41678;52.126;20.664;2023-05-25T23:38:13;100809.56;;;16.37;72.56
55759;BME280;41678;52.126;20.664;2023-05-25T23:43:33;100814.13;;;16.33;72.62
55759;BME280;41678;52.126;20.664;2023-05-25T23:48:52;100819.59;;;16.27;72.95
55759;BME280;41678;52.126;20.664;2023-05-25T23:54:11;100814.38;;;16.22;72.93
55759;BME280;41678;52.126;20.664;2023-05-25T23:59:31;100826.78;;;16.23;72.45
